TimeMST,TemperatureF,Dew PointF,Humidity,Sea Level PressureIn,VisibilityMPH,Wind Direction,Wind SpeedMPH,Gust SpeedMPH,PrecipitationIn,Events,Conditions,WindDirDegrees,DateUTC
12:55 AM,33.1,25.0,72,29.92,10.0,West,8.1,-,N/A,,Mostly Cloudy,270,2013-12-16 07:55:00
1:55 AM,35.1,26.1,70,29.93,10.0,West,6.9,-,N/A,,Overcast,280,2013-12-16 08:55:00
2:55 AM,36.0,26.1,67,29.94,10.0,West,5.8,-,N/A,,Overcast,280,2013-12-16 09:55:00
3:55 AM,37.0,27.0,67,29.96,10.0,West,10.4,-,N/A,,Overcast,270,2013-12-16 10:55:00
4:55 AM,39.9,27.0,60,29.97,10.0,WNW,6.9,-,N/A,,Overcast,290,2013-12-16 11:55:00
5:55 AM,39.9,28.0,63,30.01,10.0,WNW,9.2,-,N/A,,Overcast,300,2013-12-16 12:55:00
6:55 AM,37.9,28.9,70,30.06,10.0,NNW,10.4,-,N/A,,Overcast,330,2013-12-16 13:55:00
7:55 AM,35.1,28.9,78,30.07,10.0,WNW,3.5,-,N/A,,Overcast,300,2013-12-16 14:55:00
8:55 AM,36.0,28.9,76,30.09,10.0,West,6.9,-,N/A,,Mostly Cloudy,260,2013-12-16 15:55:00
9:55 AM,37.0,30.0,76,30.10,10.0,WSW,6.9,-,N/A,,Scattered Clouds,250,2013-12-16 16:55:00
10:55 AM,39.0,28.0,65,30.09,10.0,West,6.9,-,N/A,,Mostly Cloudy,280,2013-12-16 17:55:00
11:55 AM,39.0,28.9,67,30.09,10.0,WNW,9.2,-,N/A,,Overcast,300,2013-12-16 18:55:00
12:55 PM,39.0,28.9,67,30.09,10.0,WNW,9.2,-,N/A,,Overcast,290,2013-12-16 19:55:00
1:55 PM,37.9,28.9,70,30.08,10.0,WNW,8.1,-,N/A,,Overcast,300,2013-12-16 20:55:00
2:55 PM,37.0,28.9,73,30.11,10.0,West,6.9,-,N/A,,Overcast,280,2013-12-16 21:55:00
3:55 PM,36.0,28.9,76,30.12,10.0,West,6.9,-,N/A,,Overcast,270,2013-12-16 22:55:00
4:55 PM,34.0,28.9,82,30.14,10.0,West,6.9,-,N/A,,Overcast,270,2013-12-16 23:55:00
5:55 PM,34.0,28.0,79,30.14,10.0,West,6.9,-,N/A,,Overcast,270,2013-12-17 00:55:00
6:55 PM,33.1,28.0,82,30.16,10.0,West,3.5,-,N/A,,Overcast,270,2013-12-17 01:55:00
7:55 PM,32.0,27.0,82,30.17,10.0,West,6.9,-,N/A,,Overcast,270,2013-12-17 02:55:00
8:55 PM,30.0,26.1,85,30.19,10.0,Calm,Calm,-,N/A,,Scattered Clouds,0,2013-12-17 03:55:00
9:55 PM,28.0,24.1,85,30.19,10.0,West,6.9,-,N/A,,Clear,270,2013-12-17 04:55:00
10:55 PM,27.0,23.0,85,30.21,10.0,West,6.9,-,N/A,,Clear,280,2013-12-17 05:55:00
11:55 PM,25.0,21.9,88,30.22,10.0,WSW,6.9,-,N/A,,Partly Cloudy,250,2013-12-17 06:55:00